createdAt,value
2019-02-09T00:02:26.998Z,6.30
2019-02-09T00:05:35.099Z,6.30
2019-02-09T00:08:36.195Z,6.30
2019-02-09T00:11:37.332Z,6.30
2019-02-09T00:14:37.742Z,6.30
2019-02-09T00:17:38.094Z,6.30
2019-02-09T00:20:38.700Z,6.30
2019-02-09T00:23:39.073Z,6.30
2019-02-09T00:26:39.369Z,6.30
2019-02-09T00:29:46.179Z,6.30
2019-02-09T00:32:43.241Z,6.30
2019-02-09T00:35:44.042Z,6.30
2019-02-09T00:38:44.286Z,6.30
2019-02-09T00:41:44.697Z,6.40
2019-02-09T00:44:45.313Z,6.30
2019-02-09T00:47:46.346Z,6.40
2019-02-09T00:50:46.952Z,6.50
2019-02-09T00:53:48.196Z,6.60
2019-02-09T00:56:48.853Z,6.60
2019-02-09T00:59:54.129Z,6.60
2019-02-09T01:02:51.630Z,6.70
2019-02-09T01:05:52.539Z,6.80
2019-02-09T01:08:53.202Z,7.00
2019-02-09T01:11:54.174Z,6.90
2019-02-09T01:14:54.907Z,6.90
2019-02-09T01:17:55.554Z,6.90
2019-02-09T01:20:56.071Z,6.90
2019-02-09T01:23:57.226Z,7.10
2019-02-09T01:26:57.613Z,7.20
2019-02-09T01:30:02.365Z,7.20
2019-02-09T01:33:01.469Z,7.20
2019-02-09T01:36:02.011Z,7.20
2019-02-09T01:39:04.457Z,7.10
2019-02-09T01:42:04.766Z,7.10
2019-02-09T01:45:05.086Z,7.00
2019-02-09T01:48:06.058Z,6.90
2019-02-09T01:51:07.218Z,6.90
2019-02-09T01:54:08.294Z,6.90
2019-02-09T01:57:08.714Z,6.90
2019-02-09T02:00:10.845Z,7.00
2019-02-09T02:03:11.384Z,7.20
2019-02-09T02:06:11.848Z,7.30
2019-02-09T02:09:12.739Z,7.40
2019-02-09T02:12:13.059Z,7.50
2019-02-09T02:15:14.304Z,7.50
2019-02-09T02:18:15.406Z,7.70
2019-02-09T02:21:16.386Z,7.80
2019-02-09T02:24:16.944Z,7.70
2019-02-09T02:27:18.158Z,7.90
2019-02-09T02:30:22.332Z,8.00
2019-02-09T02:33:21.507Z,8.20
2019-02-09T02:36:22.808Z,8.20
2019-02-09T02:39:23.562Z,8.10
2019-02-09T02:42:23.806Z,8.10
2019-02-09T02:45:25.144Z,8.10
2019-02-09T02:48:25.802Z,8.00
2019-02-09T02:51:26.244Z,8.00
2019-02-09T02:54:26.941Z,8.00
2019-02-09T02:57:28.041Z,8.00
2019-02-09T03:00:32.085Z,8.10
2019-02-09T03:03:31.548Z,8.00
2019-02-09T03:06:32.152Z,8.00
2019-02-09T03:09:32.486Z,8.10
2019-02-09T03:12:32.823Z,8.20
2019-02-09T03:15:33.451Z,8.30
2019-02-09T03:18:34.393Z,8.50
2019-02-09T03:21:34.850Z,8.50
2019-02-09T03:24:35.310Z,8.50
2019-02-09T03:27:35.714Z,8.50
2019-02-09T03:30:46.415Z,8.50
2019-02-09T03:33:38.412Z,8.50
2019-02-09T03:36:39.136Z,8.30
2019-02-09T03:39:40.377Z,8.40
2019-02-09T03:42:41.196Z,8.30
2019-02-09T03:45:41.438Z,8.10
2019-02-09T03:48:42.110Z,8.00
2019-02-09T03:51:43.114Z,7.90
2019-02-09T03:54:43.775Z,7.70
2019-02-09T03:57:44.092Z,7.50
2019-02-09T04:00:44.453Z,7.40
2019-02-09T04:03:44.774Z,7.30
2019-02-09T04:06:45.385Z,7.30
2019-02-09T04:09:45.912Z,7.40
2019-02-09T04:12:46.851Z,7.40
2019-02-09T04:15:47.682Z,7.30
2019-02-09T04:18:48.384Z,7.40
2019-02-09T04:21:49.490Z,7.30
2019-02-09T04:24:49.792Z,7.30
2019-02-09T04:27:50.356Z,7.10
2019-02-09T04:30:50.656Z,7.20
2019-02-09T04:33:51.934Z,7.20
2019-02-09T04:36:53.170Z,7.10
2019-02-09T04:39:53.925Z,7.10
2019-02-09T04:42:54.309Z,7.00
2019-02-09T04:45:54.645Z,6.90
2019-02-09T04:48:55.106Z,6.70
2019-02-09T04:51:55.725Z,6.70
2019-02-09T04:54:56.360Z,6.70
2019-02-09T04:57:56.822Z,6.60
2019-02-09T05:00:57.258Z,6.70
2019-02-09T05:03:57.937Z,6.70
2019-02-09T05:06:58.703Z,6.70
2019-02-09T05:09:59.125Z,6.80
2019-02-09T05:12:59.530Z,6.70
2019-02-09T05:15:59.979Z,6.70
2019-02-09T05:19:00.411Z,6.80
2019-02-09T05:22:01.014Z,6.80
2019-02-09T05:25:01.813Z,6.80
2019-02-09T05:28:02.089Z,6.80
2019-02-09T05:31:03.302Z,6.80
2019-02-09T05:34:04.288Z,6.80
2019-02-09T05:37:04.594Z,6.80
2019-02-09T05:40:05.156Z,6.80
2019-02-09T05:43:05.910Z,6.80
2019-02-09T05:46:06.260Z,6.80
2019-02-09T05:49:06.872Z,6.80
2019-02-09T05:52:07.302Z,6.80
2019-02-09T05:55:07.795Z,6.70
2019-02-09T05:58:08.808Z,6.60
2019-02-09T06:01:09.612Z,6.50
2019-02-09T06:04:09.853Z,6.50
2019-02-09T06:07:10.728Z,6.50
2019-02-09T06:10:11.050Z,6.50
2019-02-09T06:13:11.362Z,6.50
2019-02-09T06:16:11.764Z,6.50
2019-02-09T06:19:12.425Z,6.50
2019-02-09T06:22:12.962Z,6.50
2019-02-09T06:25:13.412Z,6.50
2019-02-09T06:28:13.964Z,6.50
2019-02-09T06:31:14.280Z,6.50
2019-02-09T06:34:14.845Z,6.50
2019-02-09T06:37:15.156Z,6.50
2019-02-09T06:40:15.381Z,6.40
2019-02-09T06:43:16.153Z,6.40
2019-02-09T06:46:16.400Z,6.40
2019-02-09T06:49:17.245Z,6.40
2019-02-09T06:52:17.673Z,6.40
2019-02-09T06:55:18.837Z,6.40
2019-02-09T06:58:19.289Z,6.40
2019-02-09T07:01:20.108Z,6.50
2019-02-09T07:04:20.671Z,6.60
2019-02-09T07:07:21.196Z,6.60
2019-02-09T07:10:22.381Z,6.70
2019-02-09T07:13:22.749Z,6.80
2019-02-09T07:16:23.151Z,6.80
2019-02-09T07:19:23.891Z,6.90
2019-02-09T07:22:24.118Z,6.90
2019-02-09T07:25:25.547Z,6.90
2019-02-09T07:28:26.542Z,6.90
2019-02-09T07:31:26.805Z,6.80
2019-02-09T07:34:28.087Z,6.90
2019-02-09T07:37:28.996Z,6.90
2019-02-09T07:40:29.358Z,7.00
2019-02-09T07:43:30.004Z,7.30
2019-02-09T07:46:30.322Z,7.40
2019-02-09T07:49:31.675Z,7.40
2019-02-09T07:52:32.842Z,7.50
2019-02-09T07:55:33.186Z,7.80
2019-02-09T07:58:33.665Z,8.30
2019-02-09T08:01:34.264Z,8.50
2019-02-09T08:04:35.358Z,8.70
2019-02-09T08:07:36.145Z,8.90
2019-02-09T08:10:36.728Z,8.70
2019-02-09T08:13:37.199Z,8.40
2019-02-09T08:16:37.592Z,8.00
2019-02-09T08:19:38.486Z,7.70
2019-02-09T08:22:39.137Z,7.70
2019-02-09T08:25:40.327Z,7.30
2019-02-09T08:28:41.464Z,6.90
2019-02-09T08:31:41.816Z,6.80
2019-02-09T08:34:42.257Z,6.80
2019-02-09T08:37:42.805Z,6.80
2019-02-09T08:40:43.969Z,6.70
2019-02-09T08:43:44.283Z,6.90
2019-02-09T08:46:44.547Z,6.70
2019-02-09T08:49:44.846Z,6.50
2019-02-09T08:52:45.523Z,6.70
2019-02-09T08:55:46.041Z,6.60
2019-02-09T08:58:47.273Z,6.70
2019-02-09T09:01:47.900Z,6.70
2019-02-09T09:04:48.393Z,7.00
2019-02-09T09:07:48.793Z,6.90
2019-02-09T09:10:49.378Z,6.70
2019-02-09T09:13:50.062Z,7.20
2019-02-09T09:16:50.645Z,8.80
2019-02-09T09:19:51.128Z,9.10
2019-02-09T09:22:51.741Z,8.90
2019-02-09T09:25:52.017Z,10.10
2019-02-09T09:28:52.453Z,11.20
2019-02-09T09:31:53.922Z,11.70
2019-02-09T09:34:55.316Z,12.20
2019-02-09T09:37:56.741Z,12.20
2019-02-09T09:40:58.347Z,12.60
2019-02-09T09:43:59.282Z,12.50
2019-02-09T09:47:00.474Z,12.60
2019-02-09T09:50:01.297Z,12.00
2019-02-09T09:53:01.678Z,11.20
2019-02-09T09:56:02.101Z,10.70
2019-02-09T09:59:02.636Z,10.90
2019-02-09T10:02:02.898Z,10.70
2019-02-09T10:05:03.897Z,10.50
2019-02-09T10:08:04.982Z,10.30
2019-02-09T10:11:05.292Z,9.90
2019-02-09T10:14:08.933Z,9.90
2019-02-09T10:17:08.574Z,9.50
2019-02-09T10:20:09.576Z,9.60
2019-02-09T10:23:10.550Z,9.50
2019-02-09T10:26:12.854Z,9.80
2019-02-09T10:29:13.254Z,9.60
2019-02-09T10:32:13.883Z,9.70
2019-02-09T10:35:15.138Z,9.60
2019-02-09T10:38:15.625Z,11.50
2019-02-09T10:41:16.085Z,12.30
2019-02-09T10:44:17.423Z,10.90
2019-02-09T10:47:19.163Z,10.30
2019-02-09T10:50:19.759Z,10.00
2019-02-09T10:53:20.583Z,9.80
2019-02-09T10:56:21.369Z,9.90
2019-02-09T10:59:22.054Z,9.60
2019-02-09T11:02:22.449Z,9.90
2019-02-09T11:05:22.851Z,10.10
2019-02-09T11:08:23.258Z,10.40
2019-02-09T11:11:23.838Z,10.80
2019-02-09T11:14:24.901Z,11.90
2019-02-09T11:17:26.496Z,12.90
2019-02-09T11:20:35.080Z,14.00
2019-02-09T11:23:36.337Z,14.30
2019-02-09T11:26:37.902Z,14.30
2019-02-09T11:29:39.542Z,14.80
2019-02-09T11:32:41.293Z,15.00
2019-02-09T11:35:42.490Z,15.20
2019-02-09T11:38:44.184Z,15.90
2019-02-09T11:41:45.843Z,15.40
2019-02-09T11:44:48.157Z,15.90
2019-02-09T11:47:49.631Z,15.20
2019-02-09T11:50:38.421Z,16.30
2019-02-09T11:53:39.697Z,16.50
2019-02-09T11:56:40.144Z,15.00
2019-02-09T11:59:40.785Z,13.30
2019-02-09T12:02:41.705Z,12.70
2019-02-09T12:05:42.412Z,12.80
2019-02-09T12:08:43.115Z,12.70
2019-02-09T12:11:43.765Z,13.10
2019-02-09T12:14:44.588Z,14.00
2019-02-09T12:17:45.233Z,14.80
2019-02-09T12:20:46.079Z,14.70
2019-02-09T12:23:46.818Z,14.10
2019-02-09T12:26:47.246Z,14.10
2019-02-09T12:29:48.268Z,13.10
2019-02-09T12:32:49.337Z,12.90
2019-02-09T12:35:50.330Z,12.40
2019-02-09T12:38:51.446Z,12.90
2019-02-09T12:41:51.998Z,12.70
2019-02-09T12:44:53.397Z,12.50
2019-02-09T12:47:54.639Z,12.80
2019-02-09T12:50:55.439Z,13.70
2019-02-09T12:53:56.283Z,13.90
2019-02-09T12:56:57.332Z,13.90
2019-02-09T12:59:58.236Z,14.40
2019-02-09T13:02:58.884Z,15.40
2019-02-09T13:06:00.467Z,15.80
2019-02-09T13:09:01.577Z,15.70
2019-02-09T13:12:02.987Z,14.40
2019-02-09T13:15:04.082Z,15.40
2019-02-09T13:18:05.001Z,15.50
2019-02-09T13:21:05.853Z,15.00
2019-02-09T13:24:07.206Z,15.00
2019-02-09T13:27:07.894Z,15.00
2019-02-09T13:30:08.576Z,14.60
2019-02-09T13:33:09.437Z,13.50
2019-02-09T13:36:10.323Z,13.30
2019-02-09T13:39:10.986Z,13.90
2019-02-09T13:42:12.237Z,13.70
2019-02-09T13:45:13.516Z,14.20
2019-02-09T13:48:15.025Z,14.70
2019-02-09T13:53:58.794Z,13.60
2019-02-09T13:56:59.754Z,12.80
2019-02-09T14:00:00.645Z,12.30
2019-02-09T14:03:01.572Z,12.30
2019-02-09T14:06:08.039Z,11.60
2019-02-09T14:09:06.036Z,12.10
2019-02-09T14:12:06.888Z,11.90
2019-02-09T14:15:08.183Z,11.90
2019-02-09T14:18:08.916Z,12.20
2019-02-09T14:21:09.820Z,11.40
2019-02-09T14:24:10.822Z,11.60
2019-02-09T14:27:11.426Z,11.30
2019-02-09T14:30:12.178Z,11.50
2019-02-09T14:33:13.010Z,12.00
2019-02-09T14:36:14.688Z,11.40
2019-02-09T14:39:16.090Z,11.30
2019-02-09T14:42:17.074Z,11.40
2019-02-09T14:45:18.372Z,11.20
2019-02-09T14:48:19.856Z,11.50
2019-02-09T14:51:20.726Z,11.10
2019-02-09T14:54:21.953Z,11.30
2019-02-09T14:57:22.749Z,11.40
2019-02-09T15:00:23.688Z,11.40
2019-02-09T15:03:28.134Z,10.90
2019-02-09T15:06:27.536Z,11.00
2019-02-09T15:09:28.255Z,11.30
2019-02-09T15:12:29.212Z,11.10
2019-02-09T15:15:30.069Z,10.70
2019-02-09T15:18:30.773Z,10.80
2019-02-09T15:21:31.797Z,10.60
2019-02-09T15:24:33.216Z,10.90
2019-02-09T15:27:34.374Z,10.50
2019-02-09T15:30:34.857Z,10.40
2019-02-09T15:33:35.542Z,10.00
2019-02-09T15:36:36.425Z,10.00
2019-02-09T15:39:37.017Z,9.70
2019-02-09T15:42:37.451Z,9.60
2019-02-09T15:45:38.062Z,9.50
2019-02-09T15:48:38.662Z,9.50
2019-02-09T15:51:39.261Z,9.40
2019-02-09T15:54:39.710Z,9.30
2019-02-09T15:57:40.873Z,9.30
2019-02-09T16:00:42.037Z,9.10
2019-02-09T16:03:42.645Z,9.00
2019-02-09T16:06:43.525Z,9.00
2019-02-09T16:09:44.010Z,8.90
2019-02-09T16:12:44.486Z,9.00
2019-02-09T16:15:44.888Z,8.90
2019-02-09T16:18:45.490Z,8.90
2019-02-09T16:21:34.243Z,8.90
2019-02-09T16:24:42.128Z,8.80
2019-02-09T16:27:43.352Z,8.80
2019-02-09T16:30:43.848Z,8.80
2019-02-09T16:33:44.417Z,8.70
2019-02-09T16:36:45.106Z,8.60
2019-02-09T16:39:45.837Z,8.60
2019-02-09T16:42:47.071Z,8.60
2019-02-09T16:45:54.955Z,8.60
2019-02-09T16:49:02.846Z,8.60
2019-02-09T16:52:03.694Z,8.50
2019-02-09T16:55:05.031Z,8.60
2019-02-09T16:58:05.459Z,8.60
2019-02-09T17:01:06.128Z,8.50
2019-02-09T17:04:06.653Z,8.50
2019-02-09T17:07:07.654Z,8.40
2019-02-09T17:10:08.089Z,8.50
2019-02-09T17:13:08.376Z,8.60
2019-02-09T17:16:08.756Z,8.60
2019-02-09T17:19:09.502Z,8.50
2019-02-09T17:22:12.022Z,8.50
2019-02-09T17:25:12.659Z,8.50
2019-02-09T17:28:13.163Z,8.50
2019-02-09T17:31:13.885Z,8.50
2019-02-09T17:34:14.404Z,8.50
2019-02-09T17:37:14.921Z,8.40
2019-02-09T17:40:16.064Z,8.30
2019-02-09T17:43:16.646Z,8.30
2019-02-09T17:46:17.036Z,8.30
2019-02-09T17:49:18.266Z,8.20
2019-02-09T17:52:18.516Z,8.20
2019-02-09T17:55:18.975Z,8.20
2019-02-09T17:58:19.669Z,8.10
2019-02-09T18:01:20.258Z,8.10
2019-02-09T18:04:20.702Z,7.90
2019-02-09T18:07:21.445Z,7.80
2019-02-09T18:10:21.861Z,7.80
2019-02-09T18:13:22.546Z,7.80
2019-02-09T18:16:23.055Z,7.80
2019-02-09T18:19:23.564Z,7.70
2019-02-09T18:22:24.283Z,7.70
2019-02-09T18:25:26.236Z,7.60
2019-02-09T18:28:27.147Z,7.60
2019-02-09T18:31:27.695Z,7.70
2019-02-09T18:34:28.583Z,7.60
2019-02-09T18:37:29.163Z,7.50
2019-02-09T18:40:29.454Z,7.60
2019-02-09T18:43:30.071Z,7.60
2019-02-09T18:46:30.619Z,7.60
2019-02-09T18:49:31.696Z,7.60
2019-02-09T18:52:32.418Z,7.60
2019-02-09T18:55:33.366Z,7.60
2019-02-09T18:58:34.142Z,7.60
2019-02-09T19:01:34.962Z,7.50
2019-02-09T19:04:35.975Z,7.50
2019-02-09T19:07:37.006Z,7.50
2019-02-09T19:10:37.479Z,7.60
2019-02-09T19:13:38.198Z,7.50
2019-02-09T19:16:38.581Z,7.60
2019-02-09T19:19:39.274Z,7.60
2019-02-09T19:22:39.856Z,7.60
2019-02-09T19:25:40.631Z,7.50
2019-02-09T19:28:41.242Z,7.50
2019-02-09T19:31:42.343Z,7.60
2019-02-09T19:34:43.598Z,7.60
2019-02-09T19:37:44.608Z,7.60
2019-02-09T19:40:45.193Z,7.50
2019-02-09T19:43:45.831Z,7.50
2019-02-09T19:46:46.265Z,7.50
2019-02-09T19:49:46.626Z,7.50
2019-02-09T19:52:47.406Z,7.60
2019-02-09T19:55:47.837Z,7.50
2019-02-09T19:58:48.758Z,7.60
2019-02-09T20:01:49.566Z,7.60
2019-02-09T20:04:50.381Z,7.60
2019-02-09T20:07:50.974Z,7.60
2019-02-09T20:10:51.844Z,7.60
2019-02-09T20:13:52.423Z,7.60
2019-02-09T20:16:53.033Z,7.60
2019-02-09T20:19:53.882Z,7.60
2019-02-09T20:22:54.826Z,7.60
2019-02-09T20:25:55.390Z,7.70
2019-02-09T20:28:56.060Z,7.70
2019-02-09T20:31:56.617Z,7.70
2019-02-09T20:34:57.505Z,7.70
2019-02-09T20:37:58.730Z,7.70
2019-02-09T20:40:59.044Z,7.70
2019-02-09T20:43:59.454Z,7.70
2019-02-09T20:46:59.846Z,7.70
2019-02-09T20:50:00.358Z,7.70
2019-02-09T20:53:00.843Z,7.70
2019-02-09T20:56:01.160Z,7.70
2019-02-09T20:59:01.689Z,7.70
2019-02-09T21:02:02.046Z,7.70
2019-02-09T21:05:02.356Z,7.70
2019-02-09T21:08:02.888Z,7.80
2019-02-09T21:10:51.514Z,7.70
2019-02-09T21:17:20.443Z,7.70
2019-02-09T21:20:21.162Z,7.80
2019-02-09T21:23:21.911Z,7.70
2019-02-09T21:26:22.450Z,7.80
2019-02-09T21:29:23.585Z,7.80
2019-02-09T21:32:24.100Z,7.80
2019-02-09T21:35:24.391Z,7.80
2019-02-09T21:38:24.698Z,7.80
2019-02-09T21:41:25.181Z,7.80
2019-02-09T21:44:25.788Z,7.80
2019-02-09T21:47:26.786Z,7.80
2019-02-09T21:50:27.139Z,7.80
2019-02-09T21:53:27.579Z,7.80
2019-02-09T21:56:28.034Z,7.80
2019-02-09T21:59:28.330Z,7.80
2019-02-09T22:02:29.128Z,7.80
2019-02-09T22:05:29.645Z,7.80
2019-02-09T22:08:31.556Z,7.70
2019-02-09T22:11:32.187Z,7.70
2019-02-09T22:14:33.569Z,7.70
2019-02-09T22:17:33.979Z,7.70
2019-02-09T22:20:34.429Z,7.70
2019-02-09T22:23:34.835Z,7.70
2019-02-09T22:26:36.053Z,7.70
2019-02-09T22:29:36.422Z,7.70
2019-02-09T22:32:37.058Z,7.70
2019-02-09T22:35:37.494Z,7.70
2019-02-09T22:38:38.253Z,7.70
2019-02-09T22:41:39.114Z,7.70
2019-02-09T22:44:39.413Z,7.70
2019-02-09T22:47:40.530Z,7.70
2019-02-09T22:50:40.997Z,7.80
2019-02-09T22:53:41.609Z,7.80
2019-02-09T22:56:42.217Z,7.70
2019-02-09T22:59:42.710Z,7.70
2019-02-09T23:02:43.499Z,7.70
2019-02-09T23:05:44.141Z,7.70
2019-02-09T23:08:44.897Z,7.80
2019-02-09T23:11:45.525Z,7.70
2019-02-09T23:14:45.817Z,7.70
2019-02-09T23:17:46.429Z,7.80
2019-02-09T23:20:47.090Z,7.80
2019-02-09T23:23:47.826Z,7.70
2019-02-09T23:26:48.419Z,7.70
2019-02-09T23:29:49.164Z,7.70
2019-02-09T23:32:49.873Z,7.70
2019-02-09T23:35:50.528Z,7.80
2019-02-09T23:38:51.117Z,7.90
2019-02-09T23:41:51.794Z,7.90
2019-02-09T23:44:52.316Z,7.90
2019-02-09T23:47:53.132Z,7.80
2019-02-09T23:50:53.656Z,7.90
2019-02-09T23:53:54.422Z,7.90
2019-02-09T23:56:54.842Z,7.90
2019-02-09T23:59:55.373Z,7.90
